Fort St John Airport
CYXJ : rendu visible

Aérodrome :











RETROUVEZ-NOUS SUR...

 
LOGIN :

S'inscrire | Disclaimer

   EN    FR    IT 

 









Légende :    VFR   VFR Marginal   IFR   IFR Intensif   IFR Très Intensif
Visi : 
Plafond : 
>= 8 km
>= 3000ft
5 à 8 km
1000 à 3000 ft
1500m à 5 km
500 à 1000 ft
800 à 1500m
200 à 500 ft
< 800m
< 200 ft
Symboles :   Orages  Brouillard  Fortes neiges  Fortes précipitations  Vent > 20 kt






- Altitude de l'aérodrome : 2280 ft
- Code IATA : YXJ


CYXJ - Fort St John

DERNIER METAR :
  • 100700Z 11006KT 15SM OVC100 M08/M10 A3001 RMK AC8 SLP212

METARs EXPIRÉS :
  • 100600Z 12009KT 15SM OVC100 M08/M10 A3002 RMK AC8 SLP215
  • 100500Z 10006KT 15SM BKN110 M08/M10 A3003 RMK AC7 SLP219

TAF TAF CYXJ
Valide du 10 à 07h jusqu'au 10 à 19h UTC


100647Z 1007/1019 12008KT P6SM BKN100
FM101000 13008KT P6SM BKN040 BKN100
TEMPO 1010/1019 4SM -SN BKN020 OVC040 RMK NXT FCST BY 101300Z



MET'MAP, la Météo Aéronautique d'un coup d'oeil ! - Copyright ORBIFLY Décembre 2007 - Disclaimer

ORBIFLY MET'MAP TEAM :

Programmation & Développement : Alexandra Zaïnal
Sur une idée originale de : Baudouin d'Aumeries
Assistance à la programmation : Marc-Olivier Méhu
Soutien technique & logistique : Manuel Goepfert

Contact : metmap@orbifly.com




SOURCES & CREDITS :

   NOAA       Earth
Advisory